Time;durP1;ratioP1;P1;durP2;ratioP2;P2;SDS_P1;SDS_P2;PMS_P1;PMS_P2;Temp;Humidity;BMP_temperature;BMP_pressure;BME280_temperature;BME280_humidity;BME280_pressure;Samples;Min_cycle;Max_cycle;Signal;HPM_P1;HPM_P2
2022/12/24 00:07:20;;;;;;;0.77;0.60;;;;;;;16.07;81.73;99917.84;20553187;28;20508;-83
2022/12/24 00:17:22;;;;;;;0.65;0.55;;;;;;;16.06;81.68;99924.22;20471996;28;20106;-83
2022/12/24 00:27:23;;;;;;;1.20;0.70;;;;;;;15.97;81.61;99922.41;20474210;28;20058;-83
2022/12/24 00:37:25;;;;;;;0.73;0.40;;;;;;;16.07;81.53;99933.97;20517395;28;20554;-83
2022/12/24 00:47:26;;;;;;;0.73;0.50;;;;;;;15.83;81.36;99914.78;20533493;28;20042;-83
2022/12/24 00:57:28;;;;;;;0.50;0.50;;;;;;;16.07;81.29;99963.50;20587440;28;20054;-82
2022/12/24 01:07:29;;;;;;;0.75;0.47;;;;;;;15.93;81.52;99964.81;20630781;28;20050;-83
2022/12/24 01:17:33;;;;;;;0.40;0.40;;;;;;;16.06;81.42;100002.06;20629924;28;20138;-83
2022/12/24 01:27:34;;;;;;;0.45;0.40;;;;;;;15.62;81.45;99956.09;20615119;28;20053;-83
2022/12/24 01:37:36;;;;;;;0.50;0.50;;;;;;;16.06;81.02;100034.28;20627525;28;20108;-83
2022/12/24 01:47:37;;;;;;;0.60;0.60;;;;;;;15.87;81.22;100015.50;20644437;28;20070;-83
2022/12/24 01:57:43;;;;;;;0.90;0.60;;;;;;;16.06;81.06;100063.81;20563470;28;20161;-83
2022/12/24 02:07:45;;;;;;;0.50;0.40;;;;;;;15.85;80.93;100037.13;20544837;28;20195;-83
2022/12/24 02:17:58;;;;;;;0.47;0.32;;;;;;;16.06;80.65;100074.56;20544552;28;20053;-83
2022/12/24 02:28:19;;;;;;;0.63;0.30;;;;;;;16.06;80.88;100114.84;20543995;28;20054;-83
2022/12/24 02:38:28;;;;;;;0.50;0.43;;;;;;;15.70;80.67;100071.59;20543309;28;20062;-83
2022/12/24 02:48:30;;;;;;;0.65;0.50;;;;;;;15.71;80.75;100089.41;20547970;28;20100;-83
2022/12/24 02:58:59;;;;;;;0.38;0.38;;;;;;;16.04;80.70;100141.00;20544115;28;20114;-83
2022/12/24 03:09:24;;;;;;;0.50;0.40;;;;;;;15.77;80.48;100120.19;20540843;28;20546;-83
2022/12/24 03:19:26;;;;;;;0.30;0.30;;;;;;;16.04;80.48;100175.88;20539610;28;20562;-83
2022/12/24 03:29:28;;;;;;;0.30;0.30;;;;;;;16.04;80.44;100189.31;20539718;28;20047;-83
2022/12/24 03:39:29;;;;;;;0.30;0.30;;;;;;;15.98;80.59;100180.97;20555653;28;20129;-85
2022/12/24 03:49:31;;;;;;;0.50;0.40;;;;;;;16.04;80.37;100210.78;20554146;28;20047;-86
2022/12/24 03:59:32;;;;;;;0.40;0.40;;;;;;;16.04;80.51;100209.94;20493627;28;20071;-85
2022/12/24 04:09:34;;;;;;;0.43;0.40;;;;;;;16.03;80.24;100238.63;20535110;28;20066;-84
2022/12/24 04:19:35;;;;;;;0.35;0.35;;;;;;;15.91;80.25;100224.47;20535518;28;20047;-85
2022/12/24 04:29:37;;;;;;;0.35;0.30;;;;;;;16.02;80.31;100252.19;20552086;28;20054;-85
2022/12/24 04:39:38;;;;;;;0.65;0.30;;;;;;;16.02;80.26;100262.91;20551166;28;20105;-85
2022/12/24 04:49:40;;;;;;;1.25;0.50;;;;;;;16.02;80.12;100277.22;20570977;28;20054;-85
2022/12/24 04:59:41;;;;;;;0.98;0.60;;;;;;;16.02;80.08;100285.25;20613519;28;20043;-85
2022/12/24 05:09:43;;;;;;;0.60;0.50;;;;;;;15.90;80.11;100275.63;20626719;28;20050;-85
2022/12/24 05:19:44;;;;;;;1.02;0.30;;;;;;;16.01;80.08;100294.31;20646714;28;20455;-85
2022/12/24 05:29:46;;;;;;;0.75;0.40;;;;;;;16.01;80.20;100309.56;20645896;28;20054;-85
2022/12/24 05:39:47;;;;;;;0.47;0.30;;;;;;;16.01;79.96;100313.09;20645333;28;20104;-85
2022/12/24 05:49:49;;;;;;;1.23;0.50;;;;;;;16.00;80.11;100335.56;20618603;28;20446;-85
2022/12/24 05:59:50;;;;;;;1.13;0.47;;;;;;;16.00;80.03;100332.03;20625710;28;20407;-84
2022/12/24 06:09:52;;;;;;;2.42;0.50;;;;;;;15.99;79.79;100352.66;20643193;28;20054;-84
2022/12/24 06:19:53;;;;;;;0.65;0.65;;;;;;;15.77;79.79;100325.00;20641544;28;20116;-84
2022/12/24 06:29:55;;;;;;;0.35;0.35;;;;;;;15.99;79.73;100374.16;20623015;28;21195;-85
2022/12/24 06:39:56;;;;;;;0.90;0.38;;;;;;;15.98;79.72;100391.25;20637286;28;20062;-85
2022/12/24 06:49:58;;;;;;;0.70;0.40;;;;;;;15.89;79.70;100375.91;20557805;28;20062;-85
2022/12/24 06:59:59;;;;;;;0.80;0.40;;;;;;;15.89;79.41;100390.22;20514099;28;20389;-85
2022/12/24 07:10:01;;;;;;;2.15;0.55;;;;;;;15.99;79.73;100419.78;20537680;28;20047;-85
2022/12/24 07:20:03;;;;;;;1.10;0.32;;;;;;;15.68;79.54;100382.19;20552699;28;20129;-85
2022/12/24 07:30:07;;;;;;;1.48;0.60;;;;;;;15.99;79.71;100435.91;20517746;28;20101;-85
2022/12/24 07:40:09;;;;;;;1.48;0.52;;;;;;;16.00;79.54;100460.88;20556065;28;20567;-85
2022/12/24 07:50:10;;;;;;;0.77;0.40;;;;;;;16.00;79.48;100479.69;20549473;28;20063;-85
2022/12/24 08:00:12;;;;;;;0.95;0.40;;;;;;;15.99;79.26;100484.22;20519565;28;20583;-84
2022/12/24 08:10:14;;;;;;;1.25;0.50;;;;;;;15.93;79.42;100500.88;20503249;28;20050;-85
2022/12/24 08:30:51;;;;;;;2.77;1.13;;;;;;;15.87;78.94;100494.16;20302363;29;20048;-85
2022/12/24 08:40:54;;;;;;;3.30;0.70;;;;;;;15.69;78.75;100477.81;20240882;29;20048;-91
2022/12/24 08:50:55;;;;;;;1.80;0.68;;;;;;;15.95;78.58;100534.63;20253364;29;20064;-84
2022/12/24 09:00:57;;;;;;;3.28;0.82;;;;;;;16.07;78.49;100567.63;20268910;29;20454;-84
2022/12/24 09:11:03;;;;;;;3.45;0.73;;;;;;;16.06;78.70;100579.38;20311412;29;20390;-84
2022/12/24 09:21:07;;;;;;;4.05;0.70;;;;;;;16.04;78.77;100591.22;20299068;29;20143;-84
2022/12/24 09:31:10;;;;;;;2.63;0.63;;;;;;;16.05;78.97;100595.59;20324606;28;20502;-82
2022/12/24 09:41:42;;;;;;;2.22;0.60;;;;;;;16.04;78.80;100628.78;20298604;29;20513;-84
2022/12/24 09:52:04;;;;;;;2.10;0.60;;;;;;;16.04;78.89;100632.34;20390901;29;20100;-84
2022/12/24 10:02:12;;;;;;;1.90;0.60;;;;;;;16.04;78.79;100669.06;20358592;29;20058;-84
2022/12/24 10:12:21;;;;;;;2.38;0.77;;;;;;;16.03;79.21;100667.38;20332772;29;20048;-84
2022/12/24 10:22:25;;;;;;;2.00;0.60;;;;;;;16.03;78.78;100667.38;20358509;29;20142;-85
2022/12/24 10:32:32;;;;;;;2.03;0.70;;;;;;;16.03;78.88;100673.59;20310061;29;20811;-84
2022/12/24 10:42:43;;;;;;;3.90;1.02;;;;;;;15.95;78.95;100666.19;20324794;28;20048;-90
2022/12/24 10:52:54;;;;;;;2.58;0.65;;;;;;;16.04;78.80;100679.81;20290057;29;20087;-84
2022/12/24 11:03:28;;;;;;;1.50;0.60;;;;;;;16.04;78.73;100680.69;20272453;29;20060;-85
2022/12/24 11:13:33;;;;;;;1.15;0.47;;;;;;;15.93;78.91;100652.03;20300134;29;20794;-88
2022/12/24 11:23:39;;;;;;;3.17;0.60;;;;;;;16.02;78.80;100685.34;20266648;29;20052;-87
2022/12/24 11:33:52;;;;;;;2.22;0.70;;;;;;;15.85;78.88;100673.28;20274746;29;20480;-88
2022/12/24 11:44:02;;;;;;;2.00;0.68;;;;;;;15.67;78.93;100638.09;20327137;28;20564;-86
2022/12/24 11:54:23;;;;;;;1.77;0.60;;;;;;;16.03;78.65;100711.19;20288065;29;20194;-86
2022/12/24 12:04:28;;;;;;;2.20;0.70;;;;;;;15.97;78.96;100724.28;20317424;28;20197;-86
2022/12/24 12:14:36;;;;;;;3.97;0.85;;;;;;;16.05;79.58;100719.97;20345605;29;20112;-87
2022/12/24 12:24:45;;;;;;;2.63;0.80;;;;;;;16.05;80.15;100730.72;20377092;29;20051;-88
2022/12/24 12:35:00;;;;;;;1.55;0.60;;;;;;;15.99;80.17;100731.25;20311987;28;20139;-87
2022/12/24 12:45:26;;;;;;;2.17;0.70;;;;;;;16.05;80.76;100752.19;20337497;28;20071;-90
2022/12/24 12:55:48;;;;;;;;;;;;;;;16.05;81.05;100760.25;20333011;29;20362;-89
2022/12/24 13:06:18;;;;;;;2.55;0.63;;;;;;;15.86;81.21;100741.25;20370202;28;19927;-87
2022/12/24 13:16:48;;;;;;;1.92;0.57;;;;;;;16.04;81.56;100787.22;20315052;28;20492;-90
2022/12/24 13:27:28;;;;;;;2.97;0.80;;;;;;;16.14;81.84;100776.59;20330420;28;20204;-87
2022/12/24 13:37:29;;;;;;;2.78;1.00;;;;;;;16.22;80.71;100795.59;20339571;29;20055;-88
2022/12/24 13:47:31;;;;;;;3.05;0.90;;;;;;;16.24;80.21;100812.44;20327805;29;20115;-92
2022/12/24 13:57:37;;;;;;;3.25;1.10;;;;;;;16.28;81.04;100816.56;20345709;28;20051;-91
2022/12/24 14:07:44;;;;;;;8.02;3.05;;;;;;;16.07;81.70;100792.34;20328550;29;20072;-85
2022/12/24 14:17:46;;;;;;;7.25;3.22;;;;;;;16.31;81.79;100853.91;20336939;28;20035;-85
2022/12/24 14:27:57;;;;;;;7.20;3.50;;;;;;;16.05;81.60;100831.91;20334882;29;20050;-88
2022/12/24 14:38:17;;;;;;;3.88;2.75;;;;;;;16.07;81.75;100862.16;20320914;29;20047;-85
2022/12/24 14:48:33;;;;;;;5.55;3.63;;;;;;;16.18;82.15;100902.44;20315596;28;20048;-87
2022/12/24 14:58:39;;;;;;;4.57;2.90;;;;;;;16.14;82.54;100906.38;20336222;28;20058;-88
2022/12/24 15:08:47;;;;;;;7.00;3.13;;;;;;;16.03;83.14;100926.03;20318103;28;20158;-86
2022/12/24 15:18:51;;;;;;;4.70;2.72;;;;;;;16.13;83.07;100952.13;20337450;28;20054;-86
2022/12/24 15:28:57;;;;;;;4.57;2.73;;;;;;;16.10;83.33;100961.28;20380777;29;20051;-83
2022/12/24 15:39:07;;;;;;;3.83;2.70;;;;;;;16.09;83.50;100976.56;20350532;28;20130;-84
2022/12/24 15:49:15;;;;;;;3.83;2.60;;;;;;;16.01;83.88;100970.94;20296601;29;20048;-85
2022/12/24 15:59:35;;;;;;;4.72;2.80;;;;;;;15.76;84.15;100937.09;20321675;28;20425;-89
2022/12/24 16:09:41;;;;;;;5.72;2.90;;;;;;;16.07;84.69;101002.69;20327216;28;20060;-92
2022/12/24 16:19:47;;;;;;;3.88;2.55;;;;;;;16.06;84.78;101017.09;20346488;28;20047;-90
2022/12/24 16:29:49;;;;;;;;;;;;;;;16.08;84.85;101023.19;20326068;28;20107;-89
2022/12/24 16:39:51;;;;;;;4.82;2.47;;;;;;;16.05;85.17;101019.88;20313965;28;20045;-87
2022/12/24 16:49:53;;;;;;;5.60;2.80;;;;;;;15.73;85.20;100980.31;20347695;28;20070;-93
2022/12/24 16:59:54;;;;;;;5.15;2.83;;;;;;;16.05;85.24;101044.91;20332137;29;20048;-92
2022/12/24 17:09:56;;;;;;;5.40;2.90;;;;;;;15.86;85.32;101001.63;20337829;29;20103;-94
2022/12/24 17:19:58;;;;;;;4.00;2.55;;;;;;;15.79;85.37;100996.75;20343062;28;20048;-93
2022/12/24 17:29:59;;;;;;;5.35;3.03;;;;;;;15.84;85.39;101025.06;20357471;28;20137;-93
2022/12/24 17:40:01;;;;;;;7.00;3.00;;;;;;;16.04;85.43;101059.31;20328755;28;20421;-84
2022/12/24 17:50:03;;;;;;;5.75;3.00;;;;;;;15.94;85.46;101034.16;20310630;29;20114;-83
2022/12/24 18:00:05;;;;;;;6.32;2.72;;;;;;;15.61;85.32;100979.41;20326190;29;20138;-84
2022/12/24 18:10:08;;;;;;;5.93;2.85;;;;;;;15.75;85.84;100989.09;20304176;28;20465;-85
2022/12/24 18:20:10;;;;;;;5.18;2.83;;;;;;;16.06;85.93;101043.94;20336495;28;20071;-85
2022/12/24 18:30:12;;;;;;;8.90;4.28;;;;;;;15.95;85.78;101011.72;20403708;28;20048;-86
2022/12/24 18:40:13;;;;;;;8.52;4.25;;;;;;;16.06;85.73;101049.31;20355387;28;20129;-83
2022/12/24 18:50:15;;;;;;;10.77;4.88;;;;;;;16.06;85.73;101062.75;20359452;28;20052;-82
2022/12/24 19:00:17;;;;;;;10.93;5.30;;;;;;;16.05;85.69;101062.84;20319565;29;20059;-83
2022/12/24 19:10:18;;;;;;;11.40;5.10;;;;;;;15.84;85.66;101033.13;20319476;28;20056;-83
2022/12/24 19:20:20;;;;;;;15.10;6.03;;;;;;;16.04;85.53;101078.13;20353063;28;20048;-83
2022/12/24 19:30:21;;;;;;;10.48;4.82;;;;;;;15.64;85.30;101006.00;20323157;28;20043;-83
2022/12/24 19:40:23;;;;;;;12.32;6.93;;;;;;;16.04;85.38;101077.25;20375646;28;20066;-83
2022/12/24 19:50:25;;;;;;;10.68;5.20;;;;;;;16.04;85.25;101088.84;20380454;28;20052;-83
2022/12/24 20:00:26;;;;;;;13.88;6.43;;;;;;;16.03;85.04;101092.53;20345238;28;20449;-83
2022/12/24 20:10:28;;;;;;;12.77;5.88;;;;;;;16.03;84.89;101100.59;20318310;29;20051;-83
2022/12/24 20:20:29;;;;;;;10.43;5.57;;;;;;;16.03;84.75;101119.38;20314994;29;20524;-84
2022/12/24 20:30:35;;;;;;;13.77;6.07;;;;;;;16.02;84.86;101112.28;20386568;29;20051;-83
2022/12/24 20:40:40;;;;;;;12.15;5.30;;;;;;;15.92;84.70;101103.25;20393142;29;20522;-84
2022/12/24 20:50:42;;;;;;;11.77;5.53;;;;;;;16.01;84.71;101110.59;20375562;29;20102;-85
2022/12/24 21:00:47;;;;;;;11.50;5.28;;;;;;;15.92;84.61;101079.09;20375598;29;20052;-84
2022/12/24 21:12:47;;;;;;;8.32;4.60;;;;;;;16.01;84.30;101091.78;20376898;28;20051;-84
2022/12/24 21:21:10;;;;;;;13.02;5.30;;;;;;;16.02;84.36;101084.56;20376475;28;20052;-83
2022/12/24 21:31:13;;;;;;;11.70;5.40;;;;;;;16.01;84.40;101094.47;20390496;29;20051;-83
2022/12/24 21:41:16;;;;;;;9.27;5.13;;;;;;;16.01;83.90;101078.34;20373613;29;20083;-84
2022/12/24 21:51:18;;;;;;;10.02;4.93;;;;;;;16.00;83.91;101087.41;20386151;29;20055;-84
2022/12/24 22:01:20;;;;;;;9.07;4.55;;;;;;;16.00;83.65;101060.53;20405119;29;20052;-84
2022/12/24 22:21:41;;;;;;;10.00;4.72;;;;;;;15.87;83.67;101022.16;20450195;28;20063;-84
2022/12/24 22:31:44;;;;;;;10.85;5.40;;;;;;;16.00;83.58;101068.59;20382872;29;20052;-84
2022/12/24 22:41:45;;;;;;;9.63;4.38;;;;;;;16.00;83.28;101065.91;20402992;29;20056;-84
2022/12/24 22:51:47;;;;;;;8.55;4.47;;;;;;;15.59;83.15;101001.00;20383815;29;20047;-83
2022/12/24 23:01:51;;;;;;;8.50;4.32;;;;;;;15.65;82.83;101005.88;20383023;29;20508;-84
2022/12/24 23:11:53;;;;;;;7.97;3.95;;;;;;;15.45;83.01;100977.91;20383907;29;20048;-84
2022/12/24 23:21:54;;;;;;;8.13;3.72;;;;;;;15.85;82.86;101043.75;20387514;29;20058;-83
2022/12/24 23:31:56;;;;;;;7.07;4.28;;;;;;;15.68;82.91;101028.97;20398108;29;20059;-84
2022/12/24 23:41:58;;;;;;;8.02;4.03;;;;;;;15.98;82.75;101088.47;20397208;29;20142;-84
2022/12/24 23:51:59;;;;;;;7.65;4.07;;;;;;;15.86;82.74;101082.19;20396123;29;20528;-83
